Time;durP1;ratioP1;P1;durP2;ratioP2;P2;SDS_P1;SDS_P2;PMS_P1;PMS_P2;Temp;Humidity;BMP_temperature;BMP_pressure;BME280_temperature;BME280_humidity;BME280_pressure;Samples;Min_cycle;Max_cycle;Signal;HPM_P1;HPM_P2
2023/08/24 00:01:02;;;;;;;7.43;4.50;;;;;;;20.51;100.00;101712.28;5277700;28;20040;-71
2023/08/24 00:03:33;;;;;;;6.53;4.70;;;;;;;20.55;100.00;101708.28;5275865;28;20025;-71
2023/08/24 00:06:05;;;;;;;8.33;5.00;;;;;;;20.48;100.00;101696.63;5275178;28;20056;-71
2023/08/24 00:08:37;;;;;;;5.45;4.47;;;;;;;20.45;100.00;101712.94;5275105;28;20017;-71
2023/08/24 00:11:08;;;;;;;6.47;5.07;;;;;;;20.38;100.00;101711.97;5278443;28;20036;-73
2023/08/24 00:13:39;;;;;;;9.77;5.37;;;;;;;20.44;100.00;101723.78;5278559;28;20408;-72
2023/08/24 00:16:11;;;;;;;6.83;4.70;;;;;;;20.39;100.00;101718.97;5276107;28;20475;-71
2023/08/24 00:18:42;;;;;;;6.47;5.03;;;;;;;20.34;100.00;101711.53;5272548;28;20028;-72
2023/08/24 00:21:19;;;;;;;6.50;4.53;;;;;;;20.28;100.00;101696.22;5273558;28;20031;-72
2023/08/24 00:23:50;;;;;;;7.78;4.65;;;;;;;20.21;100.00;101689.13;5273716;28;20496;-71
2023/08/24 00:26:23;;;;;;;7.90;5.20;;;;;;;20.26;100.00;101681.44;5274231;28;20033;-73
2023/08/24 00:28:54;;;;;;;6.35;5.05;;;;;;;20.24;100.00;101688.78;5275387;28;20017;-72
2023/08/24 00:31:25;;;;;;;8.87;5.13;;;;;;;20.21;100.00;101692.59;5274496;28;20046;-72
2023/08/24 00:33:57;;;;;;;6.87;4.90;;;;;;;20.27;100.00;101697.25;5275479;28;20188;-71
2023/08/24 00:36:28;;;;;;;7.60;5.37;;;;;;;20.18;100.00;101685.78;5274938;28;20096;-72
2023/08/24 00:38:59;;;;;;;7.47;5.03;;;;;;;20.28;100.00;101690.09;5279729;28;20043;-71
2023/08/24 00:41:30;;;;;;;7.30;5.00;;;;;;;20.22;100.00;101685.44;5274500;28;20028;-71
2023/08/24 00:44:02;;;;;;;7.90;5.43;;;;;;;20.20;100.00;101672.31;5276981;28;20385;-71
2023/08/24 00:46:34;;;;;;;6.70;5.17;;;;;;;20.26;100.00;101668.13;5273510;28;20505;-72
2023/08/24 00:49:06;;;;;;;6.20;5.10;;;;;;;20.12;100.00;101665.22;5272076;28;20053;-71
2023/08/24 00:51:37;;;;;;;7.43;5.13;;;;;;;20.22;100.00;101674.81;5274577;28;20290;-72
2023/08/24 00:54:09;;;;;;;7.37;4.97;;;;;;;20.20;100.00;101677.66;5271995;28;20025;-71
2023/08/24 00:56:40;;;;;;;8.37;5.17;;;;;;;20.23;100.00;101681.78;5276214;28;20032;-72
2023/08/24 00:59:11;;;;;;;7.47;5.07;;;;;;;20.24;100.00;101678.13;5278219;28;20024;-72
2023/08/24 01:01:46;;;;;;;6.97;4.60;;;;;;;20.29;100.00;101673.09;5274699;28;20550;-72
2023/08/24 01:04:18;;;;;;;5.68;4.40;;;;;;;20.23;100.00;101668.47;5275456;28;20456;-72
2023/08/24 01:06:49;;;;;;;7.93;5.45;;;;;;;20.27;100.00;101661.81;5274243;28;20031;-71
2023/08/24 01:09:21;;;;;;;6.73;5.10;;;;;;;20.27;100.00;101662.66;5273175;28;20482;-71
2023/08/24 01:12:27;;;;;;;6.97;5.03;;;;;;;20.61;100.00;101664.16;5273881;28;20619;-71
2023/08/24 01:15:37;;;;;;;7.28;5.35;;;;;;;20.55;100.00;101681.66;5276012;28;20035;-71
2023/08/24 01:18:14;;;;;;;10.15;5.70;;;;;;;20.27;100.00;101688.44;5272305;28;20607;-72
2023/08/24 01:20:48;;;;;;;6.75;5.38;;;;;;;20.07;100.00;101664.88;5275388;28;20486;-71
2023/08/24 01:23:40;;;;;;;7.68;5.32;;;;;;;20.22;100.00;101664.16;5272846;28;20558;-71
2023/08/24 01:26:14;;;;;;;8.43;5.27;;;;;;;20.16;100.00;101666.53;5274240;28;20061;-70
2023/08/24 01:28:47;;;;;;;8.30;5.10;;;;;;;20.12;100.00;101659.06;5273918;28;20353;-71
2023/08/24 01:31:18;;;;;;;9.82;5.50;;;;;;;20.16;100.00;101655.06;5275801;28;20038;-71
2023/08/24 01:33:50;;;;;;;6.90;4.83;;;;;;;20.22;100.00;101666.81;5273580;28;20024;-71
2023/08/24 01:36:21;;;;;;;6.50;5.13;;;;;;;20.22;100.00;101674.81;5273003;28;20485;-70
2023/08/24 01:39:06;;;;;;;6.53;5.33;;;;;;;20.41;100.00;101658.41;5276021;28;20081;-70
2023/08/24 01:41:42;;;;;;;7.68;5.50;;;;;;;20.22;100.00;101649.03;5274295;28;20247;-71
2023/08/24 01:44:17;;;;;;;6.55;4.88;;;;;;;20.30;100.00;101656.97;5270609;28;20424;-70
2023/08/24 01:46:50;;;;;;;7.03;5.10;;;;;;;20.26;100.00;101650.31;5273322;28;20563;-70
2023/08/24 01:49:23;;;;;;;8.48;5.72;;;;;;;20.32;100.00;101662.94;5270520;28;20290;-70
2023/08/24 01:51:54;;;;;;;7.88;6.10;;;;;;;20.26;100.00;101654.81;5276391;28;20071;-71
2023/08/24 01:54:26;;;;;;;8.53;5.83;;;;;;;20.35;100.00;101653.81;5272163;28;20155;-71
2023/08/24 01:56:57;;;;;;;7.50;5.80;;;;;;;20.33;100.00;101663.78;5276849;28;20110;-71
2023/08/24 01:59:28;;;;;;;7.50;5.57;;;;;;;20.41;100.00;101671.72;5277652;28;20077;-70
2023/08/24 02:02:00;;;;;;;7.90;5.90;;;;;;;20.40;100.00;101667.41;5271897;28;20035;-71
2023/08/24 02:04:31;;;;;;;6.73;5.83;;;;;;;20.38;100.00;101658.75;5273652;28;20052;-71
2023/08/24 02:07:02;;;;;;;8.18;5.72;;;;;;;20.45;100.00;101669.53;5272454;28;20028;-70
2023/08/24 02:09:33;;;;;;;8.33;5.93;;;;;;;20.34;100.00;101646.78;5272050;28;20028;-70
2023/08/24 02:12:05;;;;;;;8.00;5.70;;;;;;;20.43;100.00;101645.75;5270377;28;20039;-70
2023/08/24 02:14:36;;;;;;;9.37;5.33;;;;;;;20.40;100.00;101641.59;5272897;28;20028;-70
2023/08/24 02:17:08;;;;;;;6.47;5.87;;;;;;;20.45;100.00;101642.91;5275925;28;20035;-70
2023/08/24 02:19:41;;;;;;;7.63;6.20;;;;;;;20.34;100.00;101638.81;5272202;28;20020;-71
2023/08/24 02:22:12;;;;;;;7.70;6.53;;;;;;;20.33;100.00;101653.13;5275532;28;20027;-71
2023/08/24 02:24:43;;;;;;;7.20;6.10;;;;;;;20.42;100.00;101657.41;5272053;28;20028;-70
2023/08/24 02:27:15;;;;;;;9.00;6.10;;;;;;;20.40;100.00;101646.09;5275313;28;20511;-70
2023/08/24 02:29:46;;;;;;;9.37;6.50;;;;;;;20.48;100.00;101639.91;5273244;28;20107;-70
2023/08/24 02:32:17;;;;;;;8.00;5.97;;;;;;;20.48;100.00;101651.38;5253121;28;20028;-70
2023/08/24 02:34:48;;;;;;;8.05;6.57;;;;;;;20.47;100.00;101652.41;5276450;28;20483;-70
2023/08/24 02:37:20;;;;;;;9.43;7.00;;;;;;;20.45;100.00;101656.22;5273280;28;20107;-71
2023/08/24 02:39:52;;;;;;;10.40;5.35;;;;;;;20.38;100.00;101640.97;5270714;28;20020;-70
2023/08/24 02:42:23;;;;;;;7.80;5.32;;;;;;;20.41;100.00;101634.44;5276066;28;20024;-71
2023/08/24 02:44:54;;;;;;;7.63;6.07;;;;;;;20.34;100.00;101623.69;5277283;28;20020;-71
2023/08/24 02:47:25;;;;;;;9.03;6.07;;;;;;;20.41;100.00;101616.63;5273623;28;20029;-71
2023/08/24 02:49:57;;;;;;;10.67;6.47;;;;;;;20.42;100.00;101604.19;5273626;28;20048;-71
2023/08/24 02:52:28;;;;;;;8.63;6.03;;;;;;;20.30;100.00;101593.09;5268464;28;20044;-73
2023/08/24 02:54:59;;;;;;;10.33;6.27;;;;;;;20.25;100.00;101584.00;5272447;28;20442;-71
2023/08/24 02:57:31;;;;;;;7.20;6.23;;;;;;;20.21;100.00;101582.69;5273583;28;20036;-70
2023/08/24 03:00:06;;;;;;;8.75;6.95;;;;;;;20.21;100.00;101569.38;5272023;28;20024;-71
2023/08/24 03:02:37;;;;;;;9.13;6.45;;;;;;;20.10;100.00;101555.47;5274972;28;20032;-70
2023/08/24 03:05:09;;;;;;;9.15;6.40;;;;;;;20.21;100.00;101532.97;5271398;28;20043;-70
2023/08/24 03:07:40;;;;;;;7.20;6.23;;;;;;;20.18;100.00;101523.50;5276714;28;20162;-71
2023/08/24 03:10:11;;;;;;;9.57;7.23;;;;;;;20.15;100.00;101497.25;5269562;28;20050;-71
2023/08/24 03:12:42;;;;;;;8.32;7.45;;;;;;;20.13;100.00;101488.63;5276012;28;20028;-71
2023/08/24 03:15:14;;;;;;;12.43;7.73;;;;;;;20.02;100.00;101512.13;5273969;28;20167;-70
2023/08/24 03:17:45;;;;;;;9.97;7.23;;;;;;;20.05;100.00;101515.28;5277377;28;20035;-71
2023/08/24 03:20:16;;;;;;;8.88;7.90;;;;;;;20.02;100.00;101510.31;5273443;28;20032;-71
2023/08/24 03:22:47;;;;;;;9.45;8.45;;;;;;;20.03;100.00;101493.34;5279137;28;20111;-71
2023/08/24 03:25:19;;;;;;;8.80;7.90;;;;;;;20.04;100.00;101473.72;5277852;28;20172;-71
2023/08/24 03:27:50;;;;;;;9.77;8.60;;;;;;;20.06;100.00;101474.38;5276745;28;20024;-70
2023/08/24 03:30:22;;;;;;;11.23;8.87;;;;;;;20.06;100.00;101474.38;5275683;28;20040;-71
2023/08/24 03:32:53;;;;;;;9.82;8.63;;;;;;;20.05;100.00;101459.41;5277591;28;20181;-71
2023/08/24 03:35:25;;;;;;;11.60;9.30;;;;;;;20.07;100.00;101454.72;5273687;28;20036;-71
2023/08/24 03:37:56;;;;;;;11.13;9.30;;;;;;;20.09;100.00;101446.59;5263443;28;20040;-71
2023/08/24 03:40:27;;;;;;;11.13;9.97;;;;;;;20.04;100.00;101441.81;5275940;28;20020;-71
2023/08/24 03:42:59;;;;;;;12.33;9.87;;;;;;;20.11;100.00;101429.44;5272656;28;20016;-71
2023/08/24 03:45:30;;;;;;;12.20;9.70;;;;;;;20.10;100.00;101433.09;5275583;28;20047;-70
2023/08/24 03:48:02;;;;;;;13.87;10.80;;;;;;;20.08;100.00;101432.47;5275491;28;20025;-70
2023/08/24 03:50:33;;;;;;;16.53;12.37;;;;;;;20.11;100.00;101426.75;5276653;28;20124;-70
2023/08/24 03:53:04;;;;;;;14.18;11.48;;;;;;;20.13;100.00;101431.94;5274350;28;20028;-70
2023/08/24 03:55:35;;;;;;;14.40;12.20;;;;;;;20.21;100.00;101447.00;5274748;28;20131;-70
2023/08/24 03:58:07;;;;;;;14.23;12.13;;;;;;;20.14;100.00;101442.38;5279199;28;20028;-70
2023/08/24 04:00:39;;;;;;;15.77;11.30;;;;;;;20.26;100.00;101457.91;5274230;28;20016;-70
2023/08/24 04:03:11;;;;;;;14.73;11.50;;;;;;;20.22;100.00;101451.31;5277229;28;20063;-70
2023/08/24 04:05:42;;;;;;;14.02;11.80;;;;;;;20.24;100.00;101455.44;5274105;28;20024;-70
2023/08/24 04:08:13;;;;;;;15.40;11.67;;;;;;;20.28;100.00;101462.06;5276916;28;20558;-70
2023/08/24 04:10:45;;;;;;;13.13;10.00;;;;;;;20.27;100.00;101464.91;5273564;28;20039;-71
2023/08/24 04:13:16;;;;;;;15.38;11.65;;;;;;;20.25;100.00;101467.75;5275089;28;20234;-71
2023/08/24 04:15:47;;;;;;;15.37;10.63;;;;;;;20.29;100.00;101462.88;5275424;28;20265;-70
2023/08/24 04:18:18;;;;;;;13.70;11.23;;;;;;;20.29;100.00;101465.56;5274019;28;20040;-71
2023/08/24 04:20:52;;;;;;;15.47;11.97;;;;;;;20.28;100.00;101471.88;5274809;28;20056;-70
2023/08/24 04:23:29;;;;;;;15.80;11.55;;;;;;;20.24;100.00;101471.41;5273656;28;20039;-71
2023/08/24 04:26:00;;;;;;;12.55;11.23;;;;;;;20.13;100.00;101477.16;5276401;28;20036;-71
2023/08/24 04:28:31;;;;;;;12.60;10.95;;;;;;;20.21;100.00;101477.09;5276599;28;20513;-70
2023/08/24 04:31:03;;;;;;;15.27;11.67;;;;;;;20.22;100.00;101477.91;5277602;28;20154;-70
2023/08/24 04:33:34;;;;;;;13.33;10.77;;;;;;;20.18;100.00;101474.78;5274446;28;20055;-71
2023/08/24 04:36:06;;;;;;;12.47;11.17;;;;;;;20.18;100.00;101469.47;5272238;28;20459;-71
2023/08/24 04:38:37;;;;;;;12.37;10.60;;;;;;;20.15;100.00;101481.31;5273924;28;20386;-72
2023/08/24 04:41:09;;;;;;;14.90;11.97;;;;;;;20.17;100.00;101481.94;5273722;28;20518;-70
2023/08/24 04:43:40;;;;;;;15.27;11.80;;;;;;;20.04;100.00;101475.53;5276181;28;20538;-70
2023/08/24 04:46:11;;;;;;;14.97;11.47;;;;;;;20.02;100.00;101467.75;5277431;28;20038;-70
2023/08/24 04:48:42;;;;;;;13.13;11.60;;;;;;;20.01;100.00;101474.06;5275936;28;20045;-70
2023/08/24 04:51:14;;;;;;;13.67;12.17;;;;;;;20.01;100.00;101474.06;5272972;28;20422;-71
2023/08/24 04:53:45;;;;;;;14.67;11.20;;;;;;;19.95;100.00;101468.63;5277846;28;20526;-70
2023/08/24 04:56:19;;;;;;;13.30;11.90;;;;;;;19.95;100.00;101471.28;5274875;28;20074;-72
2023/08/24 04:58:55;;;;;;;13.20;11.38;;;;;;;19.95;100.00;101466.78;5275860;28;20504;-70
2023/08/24 05:01:27;;;;;;;17.70;12.73;;;;;;;19.83;100.00;101470.88;5270484;28;20112;-71
2023/08/24 05:03:58;;;;;;;15.23;12.17;;;;;;;19.86;100.00;101468.69;5274026;28;20029;-71
2023/08/24 05:06:29;;;;;;;12.97;11.57;;;;;;;19.89;100.00;101478.97;5273635;28;20146;-71
2023/08/24 05:09:01;;;;;;;15.13;12.30;;;;;;;19.85;100.00;101485.66;5273991;28;20021;-71
2023/08/24 05:11:32;;;;;;;23.10;12.73;;;;;;;19.88;100.00;101490.59;5269345;28;20047;-71
2023/08/24 05:14:04;;;;;;;13.33;12.03;;;;;;;19.83;100.00;101485.00;5275794;28;20206;-71
2023/08/24 05:16:35;;;;;;;17.17;13.15;;;;;;;19.89;100.00;101478.97;5272113;28;20024;-71
2023/08/24 05:19:07;;;;;;;14.65;13.05;;;;;;;19.85;100.00;101474.16;5270932;28;20093;-71
2023/08/24 05:21:38;;;;;;;16.47;12.30;;;;;;;19.84;100.00;101477.84;5277485;28;20028;-70
2023/08/24 05:24:09;;;;;;;13.83;12.33;;;;;;;19.75;100.00;101455.78;5273507;28;20107;-72
2023/08/24 05:26:40;;;;;;;14.63;12.03;;;;;;;19.85;100.00;101455.56;5274303;28;20032;-71
2023/08/24 05:29:12;;;;;;;14.90;12.37;;;;;;;19.85;100.00;101452.88;5276649;28;20029;-70
2023/08/24 05:31:43;;;;;;;15.17;13.07;;;;;;;19.88;100.00;101456.03;5273750;28;20071;-72
2023/08/24 05:34:14;;;;;;;15.73;13.87;;;;;;;19.93;100.00;101444.88;5272755;28;20389;-70
2023/08/24 05:36:45;;;;;;;16.43;13.97;;;;;;;19.97;100.00;101461.31;5277441;28;20090;-71
2023/08/24 05:39:17;;;;;;;15.57;13.43;;;;;;;20.01;100.00;101455.47;5276821;28;20052;-70
2023/08/24 05:41:52;;;;;;;16.03;13.70;;;;;;;20.13;100.00;101448.72;5276323;28;20126;-70
2023/08/24 05:44:23;;;;;;;18.33;13.63;;;;;;;20.00;100.00;101450.28;5276662;28;20473;-72
2023/08/24 05:46:54;;;;;;;15.00;13.27;;;;;;;20.06;100.00;101452.25;5271653;28;20433;-70
2023/08/24 05:49:26;;;;;;;15.83;14.13;;;;;;;20.10;100.00;101454.38;5269870;28;20471;-71
2023/08/24 05:51:57;;;;;;;16.93;14.73;;;;;;;20.03;100.00;101445.47;5271009;28;20463;-70
2023/08/24 05:54:28;;;;;;;16.27;13.70;;;;;;;20.08;100.00;101435.13;5273398;28;20039;-71
2023/08/24 05:57:00;;;;;;;21.53;13.80;;;;;;;20.09;100.00;101430.63;5272093;28;20051;-71
2023/08/24 05:59:34;;;;;;;16.53;14.17;;;;;;;20.18;100.00;101414.41;5271929;28;20024;-71
2023/08/24 06:02:06;;;;;;;16.73;14.38;;;;;;;20.09;100.00;101415.50;5275724;28;20026;-71
2023/08/24 06:04:37;;;;;;;15.43;13.93;;;;;;;20.14;100.00;101406.97;5273868;28;20393;-71
2023/08/24 06:07:08;;;;;;;15.23;13.57;;;;;;;20.11;100.00;101402.00;5271086;28;20501;-71
2023/08/24 06:09:40;;;;;;;16.00;14.27;;;;;;;20.20;100.00;101397.47;5274729;28;20412;-73
2023/08/24 06:12:11;;;;;;;18.00;13.90;;;;;;;20.25;100.00;101384.44;5268862;28;20481;-72
2023/08/24 06:14:42;;;;;;;16.58;15.05;;;;;;;20.25;100.00;101376.44;5269465;28;20040;-72
2023/08/24 06:17:13;;;;;;;15.70;14.00;;;;;;;20.31;100.00;101376.56;5272863;28;20031;-71
2023/08/24 06:19:45;;;;;;;15.63;14.03;;;;;;;20.42;100.00;101383.28;5269786;28;20055;-72
2023/08/24 06:22:16;;;;;;;16.00;14.50;;;;;;;20.53;100.00;101387.34;5278383;28;20032;-72
2023/08/24 06:24:47;;;;;;;16.52;14.20;;;;;;;20.52;100.00;101393.69;5273544;28;20782;-71
2023/08/24 06:27:18;;;;;;;15.10;13.60;;;;;;;20.57;100.00;101396.63;5269596;28;20041;-71
2023/08/24 06:29:50;;;;;;;16.80;14.07;;;;;;;20.64;100.00;101393.03;5267002;28;20032;-71
2023/08/24 06:32:21;;;;;;;16.30;14.20;;;;;;;20.77;100.00;101396.91;5272450;28;20485;-72
2023/08/24 06:34:54;;;;;;;16.17;13.97;;;;;;;20.86;100.00;101395.81;5272611;28;20493;-71
2023/08/24 06:37:25;;;;;;;15.95;13.88;;;;;;;20.94;100.00;101398.38;5268654;28;20025;-71
2023/08/24 06:39:56;;;;;;;16.73;13.60;;;;;;;21.10;100.00;101389.34;5272178;28;20449;-73
2023/08/24 06:42:28;;;;;;;15.37;13.73;;;;;;;21.17;100.00;101392.91;5271838;28;20033;-72
2023/08/24 06:44:59;;;;;;;15.40;12.73;;;;;;;21.30;100.00;101385.09;5269946;28;20501;-72
2023/08/24 06:47:30;;;;;;;16.93;13.37;;;;;;;21.41;100.00;101389.16;5276394;28;20031;-71
2023/08/24 06:50:02;;;;;;;15.07;13.17;;;;;;;21.60;100.00;101393.03;5270972;28;20044;-73
2023/08/24 06:52:33;;;;;;;16.50;13.40;;;;;;;21.68;100.00;101397.44;5275191;28;20105;-71
2023/08/24 06:55:05;;;;;;;15.33;11.13;;;;;;;21.81;100.00;101398.38;5270933;28;20035;-72
2023/08/24 06:57:36;;;;;;;17.43;11.90;;;;;;;21.90;100.00;101391.09;5274841;28;20542;-71
2023/08/24 07:00:08;;;;;;;12.67;11.43;;;;;;;21.94;100.00;101397.69;5266577;28;20029;-72
2023/08/24 07:02:40;;;;;;;13.77;11.15;;;;;;;21.99;100.00;101397.94;5268986;28;20111;-72
2023/08/24 07:05:12;;;;;;;14.03;12.17;;;;;;;22.19;100.00;101390.13;5270933;28;20028;-72
2023/08/24 07:07:44;;;;;;;12.65;10.38;;;;;;;22.24;100.00;101386.88;5273375;28;20489;-72
2023/08/24 07:10:15;;;;;;;13.87;10.27;;;;;;;22.28;100.00;101378.28;5270116;28;20075;-72
2023/08/24 07:12:46;;;;;;;13.43;10.87;;;;;;;22.45;100.00;101380.66;5267307;28;20400;-72
2023/08/24 07:15:18;;;;;;;12.37;10.60;;;;;;;22.63;100.00;101380.16;5268975;28;20521;-72
2023/08/24 07:17:49;;;;;;;14.17;10.50;;;;;;;22.66;100.00;101361.91;5266888;28;20746;-73
2023/08/24 07:20:20;;;;;;;12.20;10.97;;;;;;;22.82;100.00;101360.75;5270019;28;20405;-72
2023/08/24 07:22:53;;;;;;;12.67;9.90;;;;;;;22.87;100.00;101371.66;5271039;28;20035;-72
2023/08/24 07:25:24;;;;;;;11.75;9.88;;;;;;;22.97;100.00;101372.16;5271371;28;20440;-72
2023/08/24 07:27:58;;;;;;;11.30;9.57;;;;;;;23.09;100.00;101363.56;5271157;28;20036;-73
2023/08/24 07:30:30;;;;;;;12.73;10.30;;;;;;;23.21;100.00;101365.44;5273745;28;20028;-72
2023/08/24 07:33:05;;;;;;;13.07;9.48;;;;;;;23.33;100.00;101372.88;5268308;28;20032;-72
2023/08/24 07:35:36;;;;;;;12.95;10.05;;;;;;;23.35;100.00;101360.97;5277734;28;20060;-73
2023/08/24 07:38:08;;;;;;;16.13;10.33;;;;;;;23.63;100.00;101358.13;5267380;28;20144;-71
2023/08/24 07:40:39;;;;;;;12.50;9.97;;;;;;;23.76;100.00;101368.06;5271391;28;20439;-72
2023/08/24 07:43:10;;;;;;;12.60;9.07;;;;;;;23.78;100.00;101360.66;5272256;28;20107;-74
2023/08/24 07:45:41;;;;;;;11.67;9.33;;;;;;;23.98;100.00;101358.81;5268950;28;20029;-72
2023/08/24 07:48:13;;;;;;;11.47;9.70;;;;;;;24.08;100.00;101352.22;5255411;28;20032;-72
2023/08/24 07:50:44;;;;;;;9.97;8.83;;;;;;;24.15;100.00;101358.38;5273068;28;20139;-74
2023/08/24 07:53:15;;;;;;;10.53;8.93;;;;;;;24.29;100.00;101362.72;5271579;28;20429;-72
2023/08/24 07:55:47;;;;;;;10.47;8.03;;;;;;;24.31;100.00;101355.28;5266986;28;20035;-74
2023/08/24 07:58:18;;;;;;;9.70;8.60;;;;;;;24.48;100.00;101361.06;5274535;28;20047;-72
2023/08/24 08:00:51;;;;;;;10.77;7.97;;;;;;;24.55;100.00;101369.06;5271840;28;20868;-74
2023/08/24 08:03:22;;;;;;;8.50;7.43;;;;;;;24.61;100.00;101370.91;5277626;28;20033;-73
2023/08/24 08:05:54;;;;;;;11.63;8.83;;;;;;;24.74;100.00;101371.69;5273063;28;20027;-74
2023/08/24 08:08:25;;;;;;;10.27;7.72;;;;;;;24.80;100.00;101367.34;5277178;28;20033;-73
2023/08/24 08:10:59;;;;;;;9.73;7.23;;;;;;;24.87;100.00;101360.09;5257718;28;20527;-73
2023/08/24 08:13:31;;;;;;;9.27;7.80;;;;;;;24.91;100.00;101358.66;5270559;28;20028;-73
2023/08/24 08:16:06;;;;;;;9.97;7.43;;;;;;;25.07;100.00;101349.28;5274370;28;20489;-72
2023/08/24 08:18:38;;;;;;;10.13;7.40;;;;;;;25.10;100.00;101350.75;5274869;28;20020;-72
2023/08/24 08:21:11;;;;;;;10.33;7.73;;;;;;;25.23;100.00;101346.16;5273970;28;20148;-73
2023/08/24 08:23:44;;;;;;;14.95;7.47;;;;;;;25.23;100.00;101335.44;5276740;28;20170;-72
2023/08/24 08:26:16;;;;;;;9.18;7.28;;;;;;;25.46;100.00;101332.19;5277783;28;20035;-72
2023/08/24 08:28:47;;;;;;;10.13;6.97;;;;;;;25.61;100.00;101334.56;5269091;28;20032;-74
2023/08/24 08:31:18;;;;;;;10.53;7.97;;;;;;;25.70;100.00;101332.44;5275370;28;20249;-73
2023/08/24 08:33:50;;;;;;;8.80;7.30;;;;;;;25.70;100.00;101337.78;5278642;28;20021;-73
2023/08/24 08:36:21;;;;;;;10.63;7.23;;;;;;;25.73;98.40;101337.38;5275702;28;20028;-73
2023/08/24 08:38:53;;;;;;;11.63;7.87;;;;;;;25.83;100.00;101321.59;5273384;28;20466;-72
2023/08/24 08:41:29;;;;;;;12.23;7.93;;;;;;;26.01;99.28;101325.38;5272840;28;20865;-73
2023/08/24 08:44:05;;;;;;;12.80;7.97;;;;;;;26.02;97.16;101318.97;5275239;28;20099;-75
2023/08/24 08:46:37;;;;;;;10.38;7.07;;;;;;;25.92;95.21;101303.38;5273637;28;20028;-73
2023/08/24 08:49:09;;;;;;;7.88;6.30;;;;;;;26.07;96.18;101294.97;5274445;28;20123;-73
2023/08/24 08:51:41;;;;;;;9.63;6.53;;;;;;;26.12;97.31;101292.44;5275711;28;20085;-72
2023/08/24 08:54:12;;;;;;;10.07;6.37;;;;;;;26.14;99.40;101277.75;5273891;28;20442;-73
2023/08/24 08:56:44;;;;;;;14.33;6.67;;;;;;;26.38;99.54;101272.53;5277397;28;20099;-72
2023/08/24 08:59:16;;;;;;;10.27;7.40;;;;;;;26.49;96.95;101271.00;5276565;28;20040;-73
2023/08/24 09:01:47;;;;;;;10.43;7.63;;;;;;;26.55;97.18;101259.31;5270713;28;20067;-74
2023/08/24 09:04:19;;;;;;;11.07;7.97;;;;;;;26.62;94.78;101252.00;5275505;28;20123;-72
2023/08/24 09:06:50;;;;;;;8.30;6.73;;;;;;;26.64;97.37;101241.84;5278015;28;20128;-74
2023/08/24 09:09:22;;;;;;;8.90;7.17;;;;;;;26.72;91.72;101232.66;5272657;28;20052;-72
2023/08/24 09:11:54;;;;;;;10.35;7.25;;;;;;;26.73;95.13;101229.72;5271079;28;20470;-76
2023/08/24 09:14:25;;;;;;;12.63;7.40;;;;;;;26.83;93.37;101227.31;5279625;28;20035;-73
2023/08/24 09:16:56;;;;;;;9.23;7.50;;;;;;;26.87;89.41;101219.63;5272039;28;20040;-74
2023/08/24 09:19:29;;;;;;;9.20;6.60;;;;;;;26.99;92.15;101206.22;5273672;28;20048;-73
2023/08/24 09:22:02;;;;;;;9.93;6.70;;;;;;;27.05;96.69;101199.91;5274185;28;20537;-73
2023/08/24 09:24:35;;;;;;;10.88;6.75;;;;;;;27.06;94.04;101197.00;5274300;28;20028;-73
2023/08/24 09:27:16;;;;;;;9.32;5.78;;;;;;;27.39;89.82;101198.34;5275929;28;20032;-72
2023/08/24 09:29:52;;;;;;;11.85;6.28;;;;;;;27.23;90.60;101207.91;5276537;28;20027;-74
2023/08/24 09:32:33;;;;;;;10.93;6.78;;;;;;;27.38;92.03;101213.66;5271509;28;20104;-74
2023/08/24 09:35:09;;;;;;;10.07;8.10;;;;;;;27.26;91.78;101210.16;5275511;28;20055;-73
2023/08/24 09:37:45;;;;;;;10.82;7.88;;;;;;;27.09;94.12;101217.22;5271822;28;20028;-73
2023/08/24 09:40:24;;;;;;;12.18;8.05;;;;;;;27.33;93.05;101245.03;5271036;28;20123;-72
2023/08/24 09:42:55;;;;;;;9.98;8.00;;;;;;;27.28;96.60;101259.16;5272292;28;20036;-73
2023/08/24 09:45:27;;;;;;;9.07;8.07;;;;;;;27.47;90.16;101257.22;5270388;28;20036;-74
2023/08/24 09:48:00;;;;;;;11.07;8.33;;;;;;;27.54;93.62;101262.47;5277097;28;20036;-72
2023/08/24 09:50:32;;;;;;;10.95;8.60;;;;;;;27.50;92.04;101267.50;5272167;28;20568;-72
2023/08/24 09:53:04;;;;;;;;;;;;;;;28.36;90.60;101255.19;5272587;28;20400;-74
2023/08/24 09:55:37;;;;;;;12.23;8.70;;;;;;;27.70;86.84;101263.66;5266396;28;19931;-73
2023/08/24 09:58:09;;;;;;;9.98;8.25;;;;;;;27.65;92.33;101267.88;5270324;28;20039;-73
2023/08/24 10:00:42;;;;;;;8.88;7.95;;;;;;;27.80;92.18;101272.00;5271064;28;20401;-72
2023/08/24 10:03:20;;;;;;;10.85;8.25;;;;;;;27.83;91.21;101271.53;5271137;28;20028;-72
2023/08/24 10:06:00;;;;;;;10.55;7.88;;;;;;;27.64;95.42;101281.56;5277357;28;20039;-73
2023/08/24 10:08:42;;;;;;;11.73;8.50;;;;;;;27.65;93.36;101267.03;5271661;28;20032;-72
2023/08/24 10:11:20;;;;;;;14.63;7.90;;;;;;;27.69;94.02;101297.81;5273452;28;20420;-74
2023/08/24 10:14:00;;;;;;;14.52;6.95;;;;;;;27.65;92.84;101302.03;5271733;28;20129;-73
2023/08/24 10:16:31;;;;;;;7.28;5.15;;;;;;;27.48;89.00;101291.13;5268699;28;20112;-72
2023/08/24 10:19:04;;;;;;;6.57;5.27;;;;;;;27.54;87.54;101284.00;5270714;28;20024;-73
2023/08/24 10:21:37;;;;;;;;;;;;;;;28.34;88.06;101284.25;5268634;28;20505;-74
2023/08/24 10:24:09;;;;;;;;;;;;;;;28.38;89.54;101284.63;5272219;28;19923;-72
2023/08/24 10:26:41;;;;;;;7.70;3.72;;;;;;;27.52;90.74;101283.41;5273791;28;19934;-72
2023/08/24 10:29:13;;;;;;;8.93;5.00;;;;;;;27.45;87.06;101283.53;5270231;28;20032;-73
2023/08/24 10:31:45;;;;;;;7.43;4.45;;;;;;;27.40;87.25;101291.47;5273361;28;20386;-74
2023/08/24 10:34:16;;;;;;;6.97;4.40;;;;;;;27.36;88.63;101304.56;5268295;28;20028;-73
2023/08/24 10:36:48;;;;;;;7.20;4.37;;;;;;;27.29;89.72;101303.03;5270758;28;20697;-74
2023/08/24 10:39:27;;;;;;;4.55;3.50;;;;;;;27.35;90.30;101299.41;5272004;28;20192;-73
2023/08/24 10:42:01;;;;;;;7.43;4.07;;;;;;;27.14;92.50;101315.03;5254067;28;20388;-72
2023/08/24 10:44:36;;;;;;;6.40;3.67;;;;;;;27.18;92.07;101323.47;5252569;28;20450;-74
2023/08/24 10:47:15;;;;;;;7.68;3.90;;;;;;;27.09;91.94;101322.94;5268745;28;20034;-73
2023/08/24 10:50:06;;;;;;;7.13;3.95;;;;;;;27.31;91.56;101312.50;5272237;28;20148;-72
2023/08/24 10:52:39;;;;;;;7.20;4.13;;;;;;;26.95;93.33;101317.97;5270069;28;20513;-73
2023/08/24 10:55:26;;;;;;;7.80;3.97;;;;;;;27.25;93.67;101302.66;5267521;28;20031;-74
2023/08/24 10:58:02;;;;;;;9.70;4.10;;;;;;;26.99;94.14;101314.59;5270671;28;20081;-72
2023/08/24 11:00:34;;;;;;;8.23;3.95;;;;;;;26.91;95.03;101296.09;5273595;28;20056;-73
2023/08/24 11:03:05;;;;;;;7.70;4.10;;;;;;;27.09;93.32;101293.34;5273369;28;20075;-74
2023/08/24 11:05:36;;;;;;;10.67;4.67;;;;;;;27.07;94.15;101298.13;5269008;28;20056;-73
2023/08/24 11:08:08;;;;;;;10.33;4.80;;;;;;;27.09;93.90;101290.66;5271086;28;20058;-73
2023/08/24 11:10:42;;;;;;;10.00;5.27;;;;;;;27.24;96.99;101290.28;5274528;28;20097;-72
2023/08/24 11:13:19;;;;;;;7.50;4.85;;;;;;;27.20;95.45;101277.50;5251507;28;20032;-73
2023/08/24 11:15:58;;;;;;;7.07;4.97;;;;;;;27.20;95.59;101280.19;5272504;28;20630;-72
2023/08/24 11:18:30;;;;;;;9.32;5.35;;;;;;;27.15;95.63;101267.44;5269159;28;20051;-72
2023/08/24 11:21:03;;;;;;;9.97;5.50;;;;;;;27.19;95.53;101249.78;5273092;28;20024;-73
2023/08/24 11:23:35;;;;;;;8.50;4.85;;;;;;;27.05;96.54;101232.16;5271143;28;20032;-72
2023/08/24 11:26:06;;;;;;;10.27;5.38;;;;;;;27.07;94.85;101225.50;5272932;28;20054;-72
2023/08/24 11:28:37;;;;;;;6.57;4.70;;;;;;;27.16;99.45;101223.34;5273050;28;20024;-72
2023/08/24 11:31:09;;;;;;;6.40;5.63;;;;;;;27.09;100.00;101228.81;5270932;28;20127;-72
2023/08/24 11:33:41;;;;;;;10.83;5.03;;;;;;;27.02;100.00;101229.97;5277298;28;20523;-73
2023/08/24 11:36:12;;;;;;;8.85;5.35;;;;;;;26.90;100.00;101235.31;5271886;28;20040;-73